sensor_id;sensor_type;location;lat;lon;timestamp;pressure;altitude;pressure_sealevel;temperature;humidity
36898;BME280;22827;53.108;-6.738;2024-01-16T00:00:20;100167.09;;;-5.20;53.84
36898;BME280;22827;53.108;-6.738;2024-01-16T00:02:48;100168.35;;;-4.12;53.27
36898;BME280;22827;53.108;-6.738;2024-01-16T00:05:15;100166.97;;;-4.69;52.10
36898;BME280;22827;53.108;-6.738;2024-01-16T00:07:42;100172.18;;;-4.35;52.30
36898;BME280;22827;53.108;-6.738;2024-01-16T00:10:10;100168.35;;;-4.54;52.85
36898;BME280;22827;53.108;-6.738;2024-01-16T00:12:37;100161.78;;;-4.07;52.30
36898;BME280;22827;53.108;-6.738;2024-01-16T00:15:05;100163.14;;;-4.88;52.56
36898;BME280;22827;53.108;-6.738;2024-01-16T00:17:33;100160.75;;;-4.80;52.75
36898;BME280;22827;53.108;-6.738;2024-01-16T00:20:00;100161.14;;;-4.85;52.94
36898;BME280;22827;53.108;-6.738;2024-01-16T00:22:27;100162.30;;;-5.47;53.02
36898;BME280;22827;53.108;-6.738;2024-01-16T00:24:54;100166.07;;;-5.37;53.32
36898;BME280;22827;53.108;-6.738;2024-01-16T00:27:21;100160.86;;;-4.93;54.01
36898;BME280;22827;53.108;-6.738;2024-01-16T00:29:48;100156.26;;;-5.01;52.76
36898;BME280;22827;53.108;-6.738;2024-01-16T00:32:16;100148.00;;;-6.45;53.87
36898;BME280;22827;53.108;-6.738;2024-01-16T00:34:44;100143.19;;;-5.76;53.97
36898;BME280;22827;53.108;-6.738;2024-01-16T00:37:11;100137.58;;;-5.96;54.21
36898;BME280;22827;53.108;-6.738;2024-01-16T00:39:37;100134.30;;;-7.04;54.63
36898;BME280;22827;53.108;-6.738;2024-01-16T00:42:05;100126.51;;;-7.38;55.28
36898;BME280;22827;53.108;-6.738;2024-01-16T00:44:32;100115.16;;;-6.00;55.43
36898;BME280;22827;53.108;-6.738;2024-01-16T00:46:59;100116.35;;;-7.62;55.80
36898;BME280;22827;53.108;-6.738;2024-01-16T00:49:26;100105.64;;;-6.63;55.40
36898;BME280;22827;53.108;-6.738;2024-01-16T00:51:54;100104.80;;;-6.06;55.38
36898;BME280;22827;53.108;-6.738;2024-01-16T00:54:21;100100.67;;;-5.55;54.68
36898;BME280;22827;53.108;-6.738;2024-01-16T00:56:48;100094.94;;;-5.94;54.25
36898;BME280;22827;53.108;-6.738;2024-01-16T00:59:16;100096.61;;;-6.21;54.41
36898;BME280;22827;53.108;-6.738;2024-01-16T01:01:43;100091.63;;;-5.74;54.22
36898;BME280;22827;53.108;-6.738;2024-01-16T01:04:11;100094.84;;;-5.16;54.04
36898;BME280;22827;53.108;-6.738;2024-01-16T01:06:38;100094.65;;;-4.23;53.75
36898;BME280;22827;53.108;-6.738;2024-01-16T01:09:05;100087.44;;;-4.62;53.44
36898;BME280;22827;53.108;-6.738;2024-01-16T01:11:32;100089.47;;;-5.46;53.52
36898;BME280;22827;53.108;-6.738;2024-01-16T01:14:00;100086.37;;;-6.49;55.06
36898;BME280;22827;53.108;-6.738;2024-01-16T01:16:27;100078.15;;;-6.53;55.66
36898;BME280;22827;53.108;-6.738;2024-01-16T01:18:54;100078.03;;;-5.70;56.05
36898;BME280;22827;53.108;-6.738;2024-01-16T01:21:21;100075.20;;;-5.96;56.37
36898;BME280;22827;53.108;-6.738;2024-01-16T01:23:48;100067.98;;;-4.98;55.39
36898;BME280;22827;53.108;-6.738;2024-01-16T01:26:15;100064.49;;;-4.74;54.67
36898;BME280;22827;53.108;-6.738;2024-01-16T01:28:43;100062.14;;;-4.59;54.42
36898;BME280;22827;53.108;-6.738;2024-01-16T01:31:11;100059.75;;;-4.37;54.14
36898;BME280;22827;53.108;-6.738;2024-01-16T01:33:39;100054.00;;;-4.12;54.01
36898;BME280;22827;53.108;-6.738;2024-01-16T01:36:06;100050.48;;;-3.74;53.67
36898;BME280;22827;53.108;-6.738;2024-01-16T01:38:34;100049.90;;;-4.28;53.74
36898;BME280;22827;53.108;-6.738;2024-01-16T01:41:01;100046.14;;;-3.26;53.12
36898;BME280;22827;53.108;-6.738;2024-01-16T01:43:28;100041.79;;;-3.95;53.27
36898;BME280;22827;53.108;-6.738;2024-01-16T01:46:08;100033.77;;;-3.78;53.21
36898;BME280;22827;53.108;-6.738;2024-01-16T01:48:37;100026.90;;;-3.70;53.21
36898;BME280;22827;53.108;-6.738;2024-01-16T01:51:05;100019.91;;;-3.62;53.74
36898;BME280;22827;53.108;-6.738;2024-01-16T01:53:33;100017.04;;;-3.55;53.39
36898;BME280;22827;53.108;-6.738;2024-01-16T01:56:04;100009.54;;;-3.36;53.17
36898;BME280;22827;53.108;-6.738;2024-01-16T01:58:31;100011.31;;;-3.52;52.82
36898;BME280;22827;53.108;-6.738;2024-01-16T02:00:59;100006.60;;;-3.69;53.02
36898;BME280;22827;53.108;-6.738;2024-01-16T02:03:27;100007.55;;;-3.52;53.43
36898;BME280;22827;53.108;-6.738;2024-01-16T02:05:56;100003.29;;;-3.00;52.95
36898;BME280;22827;53.108;-6.738;2024-01-16T02:08:23;99997.73;;;-3.09;53.06
36898;BME280;22827;53.108;-6.738;2024-01-16T02:10:51;99996.05;;;-3.32;53.36
36898;BME280;22827;53.108;-6.738;2024-01-16T02:13:19;99990.57;;;-3.26;53.45
36898;BME280;22827;53.108;-6.738;2024-01-16T02:15:46;99992.18;;;-2.89;53.13
36898;BME280;22827;53.108;-6.738;2024-01-16T02:18:13;99996.48;;;-2.91;52.84
36898;BME280;22827;53.108;-6.738;2024-01-16T02:20:40;99998.79;;;-2.85;52.67
36898;BME280;22827;53.108;-6.738;2024-01-16T02:23:07;99993.86;;;-2.91;53.19
36898;BME280;22827;53.108;-6.738;2024-01-16T02:25:36;99992.28;;;-2.77;53.06
36898;BME280;22827;53.108;-6.738;2024-01-16T02:28:04;99992.11;;;-2.81;52.84
36898;BME280;22827;53.108;-6.738;2024-01-16T02:30:30;99994.05;;;-3.19;52.63
36898;BME280;22827;53.108;-6.738;2024-01-16T02:32:58;99987.13;;;-3.17;53.04
36898;BME280;22827;53.108;-6.738;2024-01-16T02:35:25;99988.79;;;-3.62;52.43
36898;BME280;22827;53.108;-6.738;2024-01-16T02:37:52;99991.23;;;-4.24;53.64
36898;BME280;22827;53.108;-6.738;2024-01-16T02:40:19;99992.56;;;-4.13;52.84
36898;BME280;22827;53.108;-6.738;2024-01-16T02:42:47;99992.92;;;-4.36;52.94
36898;BME280;22827;53.108;-6.738;2024-01-16T02:45:14;99983.62;;;-5.34;52.42
36898;BME280;22827;53.108;-6.738;2024-01-16T02:47:41;99973.62;;;-5.76;54.27
36898;BME280;22827;53.108;-6.738;2024-01-16T02:50:08;99970.18;;;-6.66;55.56
36898;BME280;22827;53.108;-6.738;2024-01-16T02:52:35;99965.20;;;-5.82;55.81
36898;BME280;22827;53.108;-6.738;2024-01-16T02:55:03;99960.55;;;-5.84;55.68
36898;BME280;22827;53.108;-6.738;2024-01-16T02:57:31;99954.30;;;-5.40;55.81
36898;BME280;22827;53.108;-6.738;2024-01-16T02:59:58;99951.45;;;-4.83;54.84
36898;BME280;22827;53.108;-6.738;2024-01-16T03:02:26;99948.91;;;-5.19;54.22
36898;BME280;22827;53.108;-6.738;2024-01-16T03:04:53;99952.65;;;-4.26;53.79
36898;BME280;22827;53.108;-6.738;2024-01-16T03:07:20;99949.00;;;-4.37;53.50
36898;BME280;22827;53.108;-6.738;2024-01-16T03:09:47;99945.77;;;-4.18;53.65
36898;BME280;22827;53.108;-6.738;2024-01-16T03:12:14;99940.40;;;-4.32;53.24
36898;BME280;22827;53.108;-6.738;2024-01-16T03:14:41;99936.74;;;-4.37;53.72
36898;BME280;22827;53.108;-6.738;2024-01-16T03:17:08;99932.80;;;-4.02;53.41
36898;BME280;22827;53.108;-6.738;2024-01-16T03:19:35;99929.44;;;-3.41;53.78
36898;BME280;22827;53.108;-6.738;2024-01-16T03:22:03;99925.91;;;-3.51;52.92
36898;BME280;22827;53.108;-6.738;2024-01-16T03:24:30;99929.15;;;-3.57;53.32
36898;BME280;22827;53.108;-6.738;2024-01-16T03:26:57;99926.02;;;-3.82;53.57
36898;BME280;22827;53.108;-6.738;2024-01-16T03:29:24;99924.24;;;-3.66;53.14
36898;BME280;22827;53.108;-6.738;2024-01-16T03:31:51;99924.23;;;-4.34;54.07
36898;BME280;22827;53.108;-6.738;2024-01-16T03:34:19;99910.59;;;-3.96;53.62
36898;BME280;22827;53.108;-6.738;2024-01-16T03:36:46;99906.93;;;-4.12;54.06
36898;BME280;22827;53.108;-6.738;2024-01-16T03:39:12;99901.16;;;-4.33;54.01
36898;BME280;22827;53.108;-6.738;2024-01-16T03:41:40;99897.77;;;-3.30;55.14
36898;BME280;22827;53.108;-6.738;2024-01-16T03:44:07;99901.34;;;-3.76;53.91
36898;BME280;22827;53.108;-6.738;2024-01-16T03:46:35;99902.06;;;-3.42;54.07
36898;BME280;22827;53.108;-6.738;2024-01-16T03:49:02;99899.71;;;-3.22;53.66
36898;BME280;22827;53.108;-6.738;2024-01-16T03:51:29;99901.33;;;-3.03;53.73
36898;BME280;22827;53.108;-6.738;2024-01-16T03:53:56;99897.34;;;-3.12;54.05
36898;BME280;22827;53.108;-6.738;2024-01-16T03:56:23;99895.49;;;-2.79;53.25
36898;BME280;22827;53.108;-6.738;2024-01-16T03:58:50;99894.84;;;-2.66;52.81
36898;BME280;22827;53.108;-6.738;2024-01-16T04:01:17;99887.37;;;-4.49;53.81
36898;BME280;22827;53.108;-6.738;2024-01-16T04:03:45;99882.26;;;-3.11;53.18
36898;BME280;22827;53.108;-6.738;2024-01-16T04:06:16;99878.15;;;-3.62;54.11
36898;BME280;22827;53.108;-6.738;2024-01-16T04:08:43;99880.83;;;-3.58;53.63
36898;BME280;22827;53.108;-6.738;2024-01-16T04:11:12;99879.32;;;-3.61;53.62
36898;BME280;22827;53.108;-6.738;2024-01-16T04:13:39;99876.44;;;-3.64;53.29
36898;BME280;22827;53.108;-6.738;2024-01-16T04:16:07;99875.60;;;-4.46;53.36
36898;BME280;22827;53.108;-6.738;2024-01-16T04:18:36;99870.85;;;-4.54;54.60
36898;BME280;22827;53.108;-6.738;2024-01-16T04:21:04;99868.72;;;-3.91;53.43
36898;BME280;22827;53.108;-6.738;2024-01-16T04:23:31;99867.69;;;-4.22;54.21
36898;BME280;22827;53.108;-6.738;2024-01-16T04:25:58;99858.78;;;-4.72;54.20
36898;BME280;22827;53.108;-6.738;2024-01-16T04:28:25;99852.98;;;-4.72;53.61
36898;BME280;22827;53.108;-6.738;2024-01-16T04:30:52;99848.47;;;-4.54;53.56
36898;BME280;22827;53.108;-6.738;2024-01-16T04:33:19;99846.63;;;-4.25;53.40
36898;BME280;22827;53.108;-6.738;2024-01-16T04:35:47;99847.12;;;-3.78;53.36
36898;BME280;22827;53.108;-6.738;2024-01-16T04:38:14;99841.76;;;-4.24;53.70
36898;BME280;22827;53.108;-6.738;2024-01-16T04:40:41;99836.93;;;-4.22;53.75
36898;BME280;22827;53.108;-6.738;2024-01-16T04:43:08;99836.82;;;-4.08;53.30
36898;BME280;22827;53.108;-6.738;2024-01-16T04:45:36;99836.52;;;-3.58;53.95
36898;BME280;22827;53.108;-6.738;2024-01-16T04:48:03;99843.17;;;-4.63;54.27
36898;BME280;22827;53.108;-6.738;2024-01-16T04:50:30;99838.11;;;-3.58;53.49
36898;BME280;22827;53.108;-6.738;2024-01-16T04:52:58;99831.45;;;-3.67;53.73
36898;BME280;22827;53.108;-6.738;2024-01-16T04:55:25;99823.75;;;-3.65;53.42
36898;BME280;22827;53.108;-6.738;2024-01-16T04:57:52;99823.22;;;-3.95;53.29
36898;BME280;22827;53.108;-6.738;2024-01-16T05:00:19;99823.99;;;-4.52;54.16
36898;BME280;22827;53.108;-6.738;2024-01-16T05:02:46;99826.12;;;-3.67;53.63
36898;BME280;22827;53.108;-6.738;2024-01-16T05:05:13;99821.42;;;-3.91;53.71
36898;BME280;22827;53.108;-6.738;2024-01-16T05:07:41;99817.40;;;-4.45;54.94
36898;BME280;22827;53.108;-6.738;2024-01-16T05:10:10;99811.91;;;-4.73;54.63
36898;BME280;22827;53.108;-6.738;2024-01-16T05:12:37;99803.83;;;-3.87;54.68
36898;BME280;22827;53.108;-6.738;2024-01-16T05:15:06;99797.79;;;-3.70;54.31
36898;BME280;22827;53.108;-6.738;2024-01-16T05:17:33;99791.34;;;-3.82;54.21
36898;BME280;22827;53.108;-6.738;2024-01-16T05:20:02;99782.71;;;-4.28;54.12
36898;BME280;22827;53.108;-6.738;2024-01-16T05:22:29;99778.77;;;-4.23;54.37
36898;BME280;22827;53.108;-6.738;2024-01-16T05:24:56;99777.48;;;-4.04;53.69
36898;BME280;22827;53.108;-6.738;2024-01-16T05:27:23;99777.62;;;-3.53;53.39
36898;BME280;22827;53.108;-6.738;2024-01-16T05:29:50;99776.79;;;-3.61;53.62
36898;BME280;22827;53.108;-6.738;2024-01-16T05:32:18;99774.37;;;-3.10;53.43
36898;BME280;22827;53.108;-6.738;2024-01-16T05:34:45;99770.26;;;-3.62;53.18
36898;BME280;22827;53.108;-6.738;2024-01-16T05:37:12;99770.14;;;-3.36;53.56
36898;BME280;22827;53.108;-6.738;2024-01-16T05:39:39;99767.85;;;-3.48;53.22
36898;BME280;22827;53.108;-6.738;2024-01-16T05:42:06;99755.18;;;-4.14;54.14
36898;BME280;22827;53.108;-6.738;2024-01-16T05:44:33;99728.92;;;-5.01;53.64
36898;BME280;22827;53.108;-6.738;2024-01-16T05:47:00;99714.45;;;-3.52;53.23
36898;BME280;22827;53.108;-6.738;2024-01-16T05:49:27;99716.81;;;-3.98;53.90
36898;BME280;22827;53.108;-6.738;2024-01-16T05:51:55;99725.27;;;-4.34;55.10
36898;BME280;22827;53.108;-6.738;2024-01-16T05:54:21;99720.60;;;-3.91;54.83
36898;BME280;22827;53.108;-6.738;2024-01-16T05:56:48;99719.52;;;-4.22;54.89
36898;BME280;22827;53.108;-6.738;2024-01-16T05:59:16;99721.71;;;-3.82;54.79
36898;BME280;22827;53.108;-6.738;2024-01-16T06:01:43;99719.49;;;-3.71;54.95
36898;BME280;22827;53.108;-6.738;2024-01-16T06:04:10;99713.22;;;-3.44;54.80
36898;BME280;22827;53.108;-6.738;2024-01-16T06:06:37;99709.96;;;-3.26;53.68
36898;BME280;22827;53.108;-6.738;2024-01-16T06:09:04;99708.18;;;-3.68;54.41
36898;BME280;22827;53.108;-6.738;2024-01-16T06:11:32;99705.25;;;-3.47;54.34
36898;BME280;22827;53.108;-6.738;2024-01-16T06:13:59;99705.06;;;-3.17;53.82
36898;BME280;22827;53.108;-6.738;2024-01-16T06:16:27;99700.02;;;-3.45;54.19
36898;BME280;22827;53.108;-6.738;2024-01-16T06:18:54;99702.29;;;-3.43;53.95
36898;BME280;22827;53.108;-6.738;2024-01-16T06:21:21;99696.53;;;-3.13;53.54
36898;BME280;22827;53.108;-6.738;2024-01-16T06:23:48;99688.28;;;-2.81;54.08
36898;BME280;22827;53.108;-6.738;2024-01-16T06:26:15;99688.97;;;-2.34;54.15
36898;BME280;22827;53.108;-6.738;2024-01-16T06:28:42;99683.65;;;-2.79;53.32
36898;BME280;22827;53.108;-6.738;2024-01-16T06:31:10;99685.32;;;-2.53;53.35
36898;BME280;22827;53.108;-6.738;2024-01-16T06:33:37;99680.47;;;-2.73;52.98
36898;BME280;22827;53.108;-6.738;2024-01-16T06:36:05;99682.87;;;-3.21;53.49
36898;BME280;22827;53.108;-6.738;2024-01-16T06:38:32;99673.80;;;-3.10;53.39
36898;BME280;22827;53.108;-6.738;2024-01-16T06:40:59;99666.76;;;-3.27;52.77
36898;BME280;22827;53.108;-6.738;2024-01-16T06:43:25;99663.71;;;-2.52;53.73
36898;BME280;22827;53.108;-6.738;2024-01-16T06:45:53;99658.86;;;-2.67;53.51
36898;BME280;22827;53.108;-6.738;2024-01-16T06:48:20;99654.23;;;-2.67;52.48
36898;BME280;22827;53.108;-6.738;2024-01-16T06:50:47;99648.39;;;-2.81;52.89
36898;BME280;22827;53.108;-6.738;2024-01-16T06:53:14;99648.59;;;-3.35;53.04
36898;BME280;22827;53.108;-6.738;2024-01-16T06:55:41;99646.78;;;-3.46;54.13
36898;BME280;22827;53.108;-6.738;2024-01-16T06:58:08;99642.25;;;-2.95;52.72
36898;BME280;22827;53.108;-6.738;2024-01-16T07:00:35;99643.16;;;-3.19;53.12
36898;BME280;22827;53.108;-6.738;2024-01-16T07:03:03;99640.26;;;-2.64;52.01
36898;BME280;22827;53.108;-6.738;2024-01-16T07:05:30;99641.14;;;-3.53;52.72
36898;BME280;22827;53.108;-6.738;2024-01-16T07:07:57;99635.51;;;-4.02;52.95
36898;BME280;22827;53.108;-6.738;2024-01-16T07:10:25;99630.59;;;-4.10;52.82
36898;BME280;22827;53.108;-6.738;2024-01-16T07:12:52;99627.86;;;-3.65;52.88
36898;BME280;22827;53.108;-6.738;2024-01-16T07:15:19;99632.60;;;-3.59;52.45
36898;BME280;22827;53.108;-6.738;2024-01-16T07:17:46;99625.78;;;-3.22;53.01
36898;BME280;22827;53.108;-6.738;2024-01-16T07:20:14;99622.57;;;-3.39;51.96
36898;BME280;22827;53.108;-6.738;2024-01-16T07:22:41;99627.40;;;-4.21;53.56
36898;BME280;22827;53.108;-6.738;2024-01-16T07:25:09;99624.43;;;-3.42;52.88
36898;BME280;22827;53.108;-6.738;2024-01-16T07:27:36;99627.57;;;-3.74;52.28
36898;BME280;22827;53.108;-6.738;2024-01-16T07:30:05;99624.95;;;-4.09;51.83
36898;BME280;22827;53.108;-6.738;2024-01-16T07:32:32;99622.33;;;-5.04;52.16
36898;BME280;22827;53.108;-6.738;2024-01-16T07:35:00;99616.48;;;-4.53;52.34
36898;BME280;22827;53.108;-6.738;2024-01-16T07:37:27;99612.16;;;-4.99;52.80
36898;BME280;22827;53.108;-6.738;2024-01-16T07:39:54;99605.97;;;-4.59;52.35
36898;BME280;22827;53.108;-6.738;2024-01-16T07:42:21;99600.85;;;-4.15;52.69
36898;BME280;22827;53.108;-6.738;2024-01-16T07:44:49;99601.33;;;-4.04;51.71
36898;BME280;22827;53.108;-6.738;2024-01-16T07:47:16;99602.13;;;-3.55;51.62
36898;BME280;22827;53.108;-6.738;2024-01-16T07:49:44;99608.55;;;-3.22;52.06
36898;BME280;22827;53.108;-6.738;2024-01-16T07:52:11;99613.89;;;-3.91;51.92
36898;BME280;22827;53.108;-6.738;2024-01-16T07:54:38;99614.75;;;-4.02;51.17
36898;BME280;22827;53.108;-6.738;2024-01-16T07:57:05;99613.19;;;-3.84;51.69
36898;BME280;22827;53.108;-6.738;2024-01-16T07:59:32;99606.72;;;-4.08;51.44
36898;BME280;22827;53.108;-6.738;2024-01-16T08:02:00;99603.36;;;-4.71;52.05
36898;BME280;22827;53.108;-6.738;2024-01-16T08:04:27;99599.78;;;-4.08;51.90
36898;BME280;22827;53.108;-6.738;2024-01-16T08:06:54;99600.51;;;-4.05;51.87
36898;BME280;22827;53.108;-6.738;2024-01-16T08:09:21;99595.38;;;-3.60;52.21
36898;BME280;22827;53.108;-6.738;2024-01-16T08:11:49;99591.66;;;-3.92;52.23
36898;BME280;22827;53.108;-6.738;2024-01-16T08:14:20;99588.77;;;-3.83;51.81
36898;BME280;22827;53.108;-6.738;2024-01-16T08:17:16;99589.03;;;-3.42;51.78
36898;BME280;22827;53.108;-6.738;2024-01-16T08:19:43;99580.69;;;-3.72;51.65
36898;BME280;22827;53.108;-6.738;2024-01-16T08:22:11;99586.86;;;-4.09;51.87
36898;BME280;22827;53.108;-6.738;2024-01-16T08:24:39;99583.80;;;-4.09;51.79
36898;BME280;22827;53.108;-6.738;2024-01-16T08:27:06;99577.99;;;-3.82;51.58
36898;BME280;22827;53.108;-6.738;2024-01-16T08:29:33;99577.43;;;-3.80;52.30
36898;BME280;22827;53.108;-6.738;2024-01-16T08:32:00;99579.02;;;-4.02;52.57
36898;BME280;22827;53.108;-6.738;2024-01-16T08:34:27;99575.64;;;-3.93;52.07
36898;BME280;22827;53.108;-6.738;2024-01-16T08:36:54;99573.53;;;-3.61;52.02
36898;BME280;22827;53.108;-6.738;2024-01-16T08:39:22;99566.78;;;-3.43;52.16
36898;BME280;22827;53.108;-6.738;2024-01-16T08:41:50;99560.57;;;-3.51;52.10
36898;BME280;22827;53.108;-6.738;2024-01-16T08:44:18;99561.39;;;-3.05;51.33
36898;BME280;22827;53.108;-6.738;2024-01-16T08:46:45;99555.60;;;-2.98;51.74
36898;BME280;22827;53.108;-6.738;2024-01-16T08:49:12;99553.16;;;-3.44;51.90
36898;BME280;22827;53.108;-6.738;2024-01-16T08:51:39;99547.84;;;-3.96;52.02
36898;BME280;22827;53.108;-6.738;2024-01-16T08:54:06;99545.83;;;-3.31;51.79
36898;BME280;22827;53.108;-6.738;2024-01-16T08:56:33;99546.27;;;-2.61;51.57
36898;BME280;22827;53.108;-6.738;2024-01-16T08:59:01;99545.82;;;-3.31;51.41
36898;BME280;22827;53.108;-6.738;2024-01-16T09:01:28;99549.95;;;-3.46;51.52
36898;BME280;22827;53.108;-6.738;2024-01-16T09:03:55;99551.26;;;-4.06;51.77
36898;BME280;22827;53.108;-6.738;2024-01-16T09:06:22;99544.65;;;-3.45;51.95
36898;BME280;22827;53.108;-6.738;2024-01-16T09:08:49;99546.40;;;-4.26;52.93
36898;BME280;22827;53.108;-6.738;2024-01-16T09:11:17;99546.64;;;-3.59;52.20
36898;BME280;22827;53.108;-6.738;2024-01-16T09:13:44;99547.96;;;-3.12;51.97
36898;BME280;22827;53.108;-6.738;2024-01-16T09:16:11;99546.96;;;-2.64;51.75
36898;BME280;22827;53.108;-6.738;2024-01-16T09:18:38;99543.50;;;-2.03;51.77
36898;BME280;22827;53.108;-6.738;2024-01-16T09:21:05;99542.32;;;-2.39;51.70
36898;BME280;22827;53.108;-6.738;2024-01-16T09:23:32;99540.54;;;-3.44;52.25
36898;BME280;22827;53.108;-6.738;2024-01-16T09:25:59;99539.12;;;-2.52;51.68
36898;BME280;22827;53.108;-6.738;2024-01-16T09:28:27;99535.00;;;-2.98;51.79
36898;BME280;22827;53.108;-6.738;2024-01-16T09:30:54;99530.02;;;-2.38;51.90
36898;BME280;22827;53.108;-6.738;2024-01-16T09:33:21;99523.81;;;-1.86;51.92
36898;BME280;22827;53.108;-6.738;2024-01-16T09:35:48;99519.45;;;-2.07;51.58
36898;BME280;22827;53.108;-6.738;2024-01-16T09:38:15;99517.93;;;-1.61;51.29
36898;BME280;22827;53.108;-6.738;2024-01-16T09:40:42;99515.37;;;-1.53;51.05
36898;BME280;22827;53.108;-6.738;2024-01-16T09:43:11;99514.02;;;-1.54;51.87
36898;BME280;22827;53.108;-6.738;2024-01-16T09:45:38;99509.94;;;-1.51;51.18
36898;BME280;22827;53.108;-6.738;2024-01-16T09:48:07;99510.00;;;-0.61;51.12
36898;BME280;22827;53.108;-6.738;2024-01-16T09:50:35;99506.79;;;-0.53;50.95
36898;BME280;22827;53.108;-6.738;2024-01-16T09:53:02;99506.55;;;-1.26;49.67
36898;BME280;22827;53.108;-6.738;2024-01-16T09:55:30;99501.49;;;-1.15;50.59
36898;BME280;22827;53.108;-6.738;2024-01-16T09:57:58;99488.63;;;-0.49;48.69
36898;BME280;22827;53.108;-6.738;2024-01-16T10:00:27;99492.44;;;-0.94;49.91
36898;BME280;22827;53.108;-6.738;2024-01-16T10:02:55;99487.87;;;-1.67;49.38
36898;BME280;22827;53.108;-6.738;2024-01-16T10:05:24;99476.57;;;-1.30;49.30
36898;BME280;22827;53.108;-6.738;2024-01-16T10:07:52;99469.55;;;-0.11;49.32
36898;BME280;22827;53.108;-6.738;2024-01-16T10:10:21;99461.03;;;-1.04;49.01
36898;BME280;22827;53.108;-6.738;2024-01-16T10:12:50;99458.48;;;-0.37;49.13
36898;BME280;22827;53.108;-6.738;2024-01-16T10:18:08;99448.71;;;-1.25;48.71
36898;BME280;22827;53.108;-6.738;2024-01-16T10:20:48;99441.66;;;-0.83;47.41
36898;BME280;22827;53.108;-6.738;2024-01-16T10:23:22;99438.56;;;-0.77;47.16
36898;BME280;22827;53.108;-6.738;2024-01-16T10:26:05;99437.26;;;-0.35;47.15
36898;BME280;22827;53.108;-6.738;2024-01-16T10:28:32;99435.32;;;-0.69;47.30
36898;BME280;22827;53.108;-6.738;2024-01-16T10:31:02;99435.20;;;-0.22;47.39
36898;BME280;22827;53.108;-6.738;2024-01-16T10:33:29;99431.56;;;-0.75;47.42
36898;BME280;22827;53.108;-6.738;2024-01-16T10:36:10;99433.65;;;-0.75;47.89
36898;BME280;22827;53.108;-6.738;2024-01-16T10:38:38;99433.82;;;-0.95;48.72
36898;BME280;22827;53.108;-6.738;2024-01-16T10:41:09;99430.58;;;-0.39;48.12
36898;BME280;22827;53.108;-6.738;2024-01-16T10:43:37;99428.21;;;-0.94;48.80
36898;BME280;22827;53.108;-6.738;2024-01-16T10:46:10;99424.94;;;-1.50;49.93
36898;BME280;22827;53.108;-6.738;2024-01-16T10:48:39;99420.88;;;-1.53;49.95
36898;BME280;22827;53.108;-6.738;2024-01-16T10:51:07;99417.35;;;-1.72;49.78
36898;BME280;22827;53.108;-6.738;2024-01-16T10:53:34;99411.68;;;-0.87;48.99
36898;BME280;22827;53.108;-6.738;2024-01-16T10:56:02;99407.73;;;-1.30;49.19
36898;BME280;22827;53.108;-6.738;2024-01-16T10:58:33;99406.18;;;-0.43;50.27
36898;BME280;22827;53.108;-6.738;2024-01-16T11:01:02;99398.38;;;-1.15;49.18
36898;BME280;22827;53.108;-6.738;2024-01-16T11:03:35;99391.61;;;-0.56;48.99
36898;BME280;22827;53.108;-6.738;2024-01-16T11:06:06;99392.91;;;-0.74;49.03
36898;BME280;22827;53.108;-6.738;2024-01-16T11:08:35;99388.74;;;0.03;47.90
36898;BME280;22827;53.108;-6.738;2024-01-16T11:11:04;99389.22;;;0.20;47.10
36898;BME280;22827;53.108;-6.738;2024-01-16T11:13:33;99392.95;;;-1.01;47.90
36898;BME280;22827;53.108;-6.738;2024-01-16T11:16:02;99389.90;;;-0.26;47.81
36898;BME280;22827;53.108;-6.738;2024-01-16T11:18:31;99391.01;;;-0.35;47.50
36898;BME280;22827;53.108;-6.738;2024-01-16T11:20:59;99392.54;;;-0.13;47.04
36898;BME280;22827;53.108;-6.738;2024-01-16T11:23:27;99389.43;;;0.30;47.36
36898;BME280;22827;53.108;-6.738;2024-01-16T11:25:55;99387.87;;;-0.40;47.35
36898;BME280;22827;53.108;-6.738;2024-01-16T11:28:28;99382.85;;;0.47;47.13
36898;BME280;22827;53.108;-6.738;2024-01-16T11:30:55;99378.58;;;0.48;47.43
36898;BME280;22827;53.108;-6.738;2024-01-16T11:33:54;99372.34;;;-0.16;46.96
36898;BME280;22827;53.108;-6.738;2024-01-16T11:36:59;99367.09;;;0.45;47.26
36898;BME280;22827;53.108;-6.738;2024-01-16T11:39:28;99361.95;;;-0.10;47.22
36898;BME280;22827;53.108;-6.738;2024-01-16T11:41:56;99358.27;;;0.51;46.59
36898;BME280;22827;53.108;-6.738;2024-01-16T11:44:56;99353.37;;;0.08;46.77
36898;BME280;22827;53.108;-6.738;2024-01-16T11:47:24;99348.77;;;-0.13;47.26
36898;BME280;22827;53.108;-6.738;2024-01-16T11:49:51;99343.08;;;-0.19;46.72
36898;BME280;22827;53.108;-6.738;2024-01-16T11:52:39;99337.70;;;-0.77;47.35
36898;BME280;22827;53.108;-6.738;2024-01-16T11:55:25;99337.48;;;-0.73;47.00
36898;BME280;22827;53.108;-6.738;2024-01-16T11:58:10;99338.32;;;-1.57;48.47
36898;BME280;22827;53.108;-6.738;2024-01-16T12:00:45;99333.48;;;-0.83;48.46
36898;BME280;22827;53.108;-6.738;2024-01-16T12:03:13;99331.63;;;-0.80;48.55
36898;BME280;22827;53.108;-6.738;2024-01-16T12:05:42;99325.17;;;-1.00;49.50
36898;BME280;22827;53.108;-6.738;2024-01-16T12:08:09;99317.62;;;-0.90;49.09
36898;BME280;22827;53.108;-6.738;2024-01-16T12:10:46;99313.55;;;-1.22;50.17
36898;BME280;22827;53.108;-6.738;2024-01-16T12:13:13;99309.12;;;-0.39;49.17
36898;BME280;22827;53.108;-6.738;2024-01-16T12:15:40;99303.71;;;-1.53;49.61
36898;BME280;22827;53.108;-6.738;2024-01-16T12:18:07;99304.19;;;-0.38;48.18
36898;BME280;22827;53.108;-6.738;2024-01-16T12:20:36;99298.97;;;-0.76;48.71
36898;BME280;22827;53.108;-6.738;2024-01-16T12:23:06;99297.25;;;-1.00;48.33
36898;BME280;22827;53.108;-6.738;2024-01-16T12:25:34;99297.50;;;-0.99;49.14
36898;BME280;22827;53.108;-6.738;2024-01-16T12:28:04;99290.47;;;0.26;47.99
36898;BME280;22827;53.108;-6.738;2024-01-16T12:30:32;99287.57;;;-0.03;48.08
36898;BME280;22827;53.108;-6.738;2024-01-16T12:33:04;99284.02;;;-0.11;48.20
36898;BME280;22827;53.108;-6.738;2024-01-16T12:35:31;99267.96;;;0.94;47.77
36898;BME280;22827;53.108;-6.738;2024-01-16T12:38:00;99267.20;;;-0.02;47.71
36898;BME280;22827;53.108;-6.738;2024-01-16T12:40:27;99255.63;;;0.70;46.27
36898;BME280;22827;53.108;-6.738;2024-01-16T12:42:55;99255.94;;;-0.39;48.15
36898;BME280;22827;53.108;-6.738;2024-01-16T12:45:23;99240.80;;;0.81;46.90
36898;BME280;22827;53.108;-6.738;2024-01-16T12:47:51;99239.58;;;0.18;46.24
36898;BME280;22827;53.108;-6.738;2024-01-16T12:50:20;99236.05;;;0.71;46.68
36898;BME280;22827;53.108;-6.738;2024-01-16T12:52:47;99231.26;;;0.83;46.80
36898;BME280;22827;53.108;-6.738;2024-01-16T12:55:14;99229.21;;;0.97;47.03